sensor_id;sensor_type;location;lat;lon;timestamp;temperature;humidity
3154;DHT22;1587;48.630;9.046;2022-08-30T00:01:59;14.10;99.90
3154;DHT22;1587;48.630;9.046;2022-08-30T00:04:25;14.10;99.90
3154;DHT22;1587;48.630;9.046;2022-08-30T00:06:50;14.00;99.90
3154;DHT22;1587;48.630;9.046;2022-08-30T00:09:16;14.00;99.90
3154;DHT22;1587;48.630;9.046;2022-08-30T00:11:41;13.90;99.90
3154;DHT22;1587;48.630;9.046;2022-08-30T00:14:07;13.90;99.90
3154;DHT22;1587;48.630;9.046;2022-08-30T00:16:32;14.00;99.90
3154;DHT22;1587;48.630;9.046;2022-08-30T00:18:58;14.00;99.90
3154;DHT22;1587;48.630;9.046;2022-08-30T00:21:24;13.90;99.90
3154;DHT22;1587;48.630;9.046;2022-08-30T00:23:51;13.90;99.90
3154;DHT22;1587;48.630;9.046;2022-08-30T00:26:17;13.80;99.90
3154;DHT22;1587;48.630;9.046;2022-08-30T00:28:42;13.90;99.90
3154;DHT22;1587;48.630;9.046;2022-08-30T00:31:08;13.90;99.90
3154;DHT22;1587;48.630;9.046;2022-08-30T00:33:34;13.90;99.90
3154;DHT22;1587;48.630;9.046;2022-08-30T00:36:00;13.90;99.90
3154;DHT22;1587;48.630;9.046;2022-08-30T00:38:25;13.80;99.90
3154;DHT22;1587;48.630;9.046;2022-08-30T00:40:51;13.70;99.90
3154;DHT22;1587;48.630;9.046;2022-08-30T00:43:18;13.70;99.90
3154;DHT22;1587;48.630;9.046;2022-08-30T00:45:44;13.70;99.90
3154;DHT22;1587;48.630;9.046;2022-08-30T00:48:10;13.60;99.90
3154;DHT22;1587;48.630;9.046;2022-08-30T00:50:37;13.60;99.90
3154;DHT22;1587;48.630;9.046;2022-08-30T00:53:06;13.40;99.90
3154;DHT22;1587;48.630;9.046;2022-08-30T00:55:33;13.50;99.90
3154;DHT22;1587;48.630;9.046;2022-08-30T00:57:59;13.60;99.90
3154;DHT22;1587;48.630;9.046;2022-08-30T01:00:25;13.60;99.90
3154;DHT22;1587;48.630;9.046;2022-08-30T01:02:50;13.60;99.90
3154;DHT22;1587;48.630;9.046;2022-08-30T01:05:16;13.60;99.90
3154;DHT22;1587;48.630;9.046;2022-08-30T01:07:42;13.50;99.90
3154;DHT22;1587;48.630;9.046;2022-08-30T01:10:08;13.40;99.90
3154;DHT22;1587;48.630;9.046;2022-08-30T01:12:34;13.40;99.90
3154;DHT22;1587;48.630;9.046;2022-08-30T01:15:00;13.50;99.90
3154;DHT22;1587;48.630;9.046;2022-08-30T01:17:26;13.50;99.90
3154;DHT22;1587;48.630;9.046;2022-08-30T01:19:54;13.50;99.90
3154;DHT22;1587;48.630;9.046;2022-08-30T01:24:50;13.40;99.90
3154;DHT22;1587;48.630;9.046;2022-08-30T01:27:17;13.30;99.90
3154;DHT22;1587;48.630;9.046;2022-08-30T01:29:43;13.30;99.90
3154;DHT22;1587;48.630;9.046;2022-08-30T01:32:16;13.30;99.90
3154;DHT22;1587;48.630;9.046;2022-08-30T01:34:43;13.20;99.90
3154;DHT22;1587;48.630;9.046;2022-08-30T01:37:09;13.10;99.90
3154;DHT22;1587;48.630;9.046;2022-08-30T01:39:34;13.20;99.90
3154;DHT22;1587;48.630;9.046;2022-08-30T01:42:00;13.30;99.90
3154;DHT22;1587;48.630;9.046;2022-08-30T01:44:26;13.20;99.90
3154;DHT22;1587;48.630;9.046;2022-08-30T01:46:51;13.10;99.90
3154;DHT22;1587;48.630;9.046;2022-08-30T01:49:18;13.10;99.90
3154;DHT22;1587;48.630;9.046;2022-08-30T01:51:44;13.10;99.90
3154;DHT22;1587;48.630;9.046;2022-08-30T01:54:10;13.10;99.90
3154;DHT22;1587;48.630;9.046;2022-08-30T01:56:36;13.10;99.90
3154;DHT22;1587;48.630;9.046;2022-08-30T01:59:02;13.10;99.90
3154;DHT22;1587;48.630;9.046;2022-08-30T02:01:27;13.00;99.90
3154;DHT22;1587;48.630;9.046;2022-08-30T02:03:54;12.90;99.90
3154;DHT22;1587;48.630;9.046;2022-08-30T02:06:20;13.00;99.90
3154;DHT22;1587;48.630;9.046;2022-08-30T02:08:47;13.00;99.90
3154;DHT22;1587;48.630;9.046;2022-08-30T02:11:13;13.00;99.90
3154;DHT22;1587;48.630;9.046;2022-08-30T02:13:39;13.00;99.90
3154;DHT22;1587;48.630;9.046;2022-08-30T02:16:06;13.00;99.90
3154;DHT22;1587;48.630;9.046;2022-08-30T02:18:33;13.00;99.90
3154;DHT22;1587;48.630;9.046;2022-08-30T02:20:59;12.90;99.90
3154;DHT22;1587;48.630;9.046;2022-08-30T02:23:25;12.80;99.90
3154;DHT22;1587;48.630;9.046;2022-08-30T02:25:50;12.90;99.90
3154;DHT22;1587;48.630;9.046;2022-08-30T02:28:16;13.00;99.90
3154;DHT22;1587;48.630;9.046;2022-08-30T02:30:44;13.00;99.90
3154;DHT22;1587;48.630;9.046;2022-08-30T02:33:10;12.80;99.90
3154;DHT22;1587;48.630;9.046;2022-08-30T02:35:35;12.90;99.90
3154;DHT22;1587;48.630;9.046;2022-08-30T02:38:01;12.90;99.90
3154;DHT22;1587;48.630;9.046;2022-08-30T02:40:26;12.90;99.90
3154;DHT22;1587;48.630;9.046;2022-08-30T02:42:52;12.80;99.90
3154;DHT22;1587;48.630;9.046;2022-08-30T02:45:18;12.70;99.90
3154;DHT22;1587;48.630;9.046;2022-08-30T02:47:43;12.60;99.90
3154;DHT22;1587;48.630;9.046;2022-08-30T02:50:09;12.60;99.90
3154;DHT22;1587;48.630;9.046;2022-08-30T02:52:35;12.60;99.90
3154;DHT22;1587;48.630;9.046;2022-08-30T02:55:01;12.70;99.90
3154;DHT22;1587;48.630;9.046;2022-08-30T02:57:27;12.70;99.90
3154;DHT22;1587;48.630;9.046;2022-08-30T02:59:52;12.70;99.90
3154;DHT22;1587;48.630;9.046;2022-08-30T03:02:18;12.70;99.90
3154;DHT22;1587;48.630;9.046;2022-08-30T03:04:43;12.70;99.90
3154;DHT22;1587;48.630;9.046;2022-08-30T03:07:09;12.70;99.90
3154;DHT22;1587;48.630;9.046;2022-08-30T03:09:36;12.70;99.90
3154;DHT22;1587;48.630;9.046;2022-08-30T03:12:02;12.70;99.90
3154;DHT22;1587;48.630;9.046;2022-08-30T03:14:30;12.70;99.90
3154;DHT22;1587;48.630;9.046;2022-08-30T03:16:56;12.60;99.90
3154;DHT22;1587;48.630;9.046;2022-08-30T03:19:22;12.60;99.90
3154;DHT22;1587;48.630;9.046;2022-08-30T03:21:47;12.60;99.90
3154;DHT22;1587;48.630;9.046;2022-08-30T03:24:13;12.60;99.90
3154;DHT22;1587;48.630;9.046;2022-08-30T03:26:38;12.60;99.90
3154;DHT22;1587;48.630;9.046;2022-08-30T03:29:04;12.50;99.90
3154;DHT22;1587;48.630;9.046;2022-08-30T03:31:30;12.30;99.90
3154;DHT22;1587;48.630;9.046;2022-08-30T03:33:55;12.30;99.90
3154;DHT22;1587;48.630;9.046;2022-08-30T03:36:21;12.40;99.90
3154;DHT22;1587;48.630;9.046;2022-08-30T03:38:46;12.40;99.90
3154;DHT22;1587;48.630;9.046;2022-08-30T03:41:12;12.30;99.90
3154;DHT22;1587;48.630;9.046;2022-08-30T03:43:37;12.20;99.90
3154;DHT22;1587;48.630;9.046;2022-08-30T03:46:03;12.20;99.90
3154;DHT22;1587;48.630;9.046;2022-08-30T03:48:29;12.20;99.90
3154;DHT22;1587;48.630;9.046;2022-08-30T03:50:54;12.10;99.90
3154;DHT22;1587;48.630;9.046;2022-08-30T03:53:20;12.10;99.90
3154;DHT22;1587;48.630;9.046;2022-08-30T03:55:46;12.00;99.90
3154;DHT22;1587;48.630;9.046;2022-08-30T03:58:11;12.00;99.90
3154;DHT22;1587;48.630;9.046;2022-08-30T04:00:37;12.00;99.90
3154;DHT22;1587;48.630;9.046;2022-08-30T04:03:02;12.10;99.90
3154;DHT22;1587;48.630;9.046;2022-08-30T04:05:28;12.10;99.90
3154;DHT22;1587;48.630;9.046;2022-08-30T04:07:54;12.00;99.90
3154;DHT22;1587;48.630;9.046;2022-08-30T04:10:19;12.00;99.90
3154;DHT22;1587;48.630;9.046;2022-08-30T04:12:46;12.00;99.90
3154;DHT22;1587;48.630;9.046;2022-08-30T04:15:12;12.00;99.90
3154;DHT22;1587;48.630;9.046;2022-08-30T04:17:38;12.00;99.90
3154;DHT22;1587;48.630;9.046;2022-08-30T04:20:04;12.00;99.90
3154;DHT22;1587;48.630;9.046;2022-08-30T04:22:29;12.00;99.90
3154;DHT22;1587;48.630;9.046;2022-08-30T04:24:55;12.00;99.90
3154;DHT22;1587;48.630;9.046;2022-08-30T04:27:20;11.90;99.90
3154;DHT22;1587;48.630;9.046;2022-08-30T04:29:46;11.80;99.90
3154;DHT22;1587;48.630;9.046;2022-08-30T04:32:12;11.80;99.90
3154;DHT22;1587;48.630;9.046;2022-08-30T04:34:37;11.90;99.90
3154;DHT22;1587;48.630;9.046;2022-08-30T04:37:03;11.90;99.90
3154;DHT22;1587;48.630;9.046;2022-08-30T04:39:28;11.90;99.90
3154;DHT22;1587;48.630;9.046;2022-08-30T04:41:54;11.90;99.90
3154;DHT22;1587;48.630;9.046;2022-08-30T04:44:20;11.90;99.90
3154;DHT22;1587;48.630;9.046;2022-08-30T04:46:46;12.00;99.90
3154;DHT22;1587;48.630;9.046;2022-08-30T04:49:12;12.00;99.90
3154;DHT22;1587;48.630;9.046;2022-08-30T04:51:37;12.00;99.90
3154;DHT22;1587;48.630;9.046;2022-08-30T04:54:03;11.90;99.90
3154;DHT22;1587;48.630;9.046;2022-08-30T04:56:28;12.00;99.90
3154;DHT22;1587;48.630;9.046;2022-08-30T04:58:54;12.10;99.90
3154;DHT22;1587;48.630;9.046;2022-08-30T05:01:30;12.20;99.90
3154;DHT22;1587;48.630;9.046;2022-08-30T05:03:55;12.20;99.90
3154;DHT22;1587;48.630;9.046;2022-08-30T05:06:22;12.20;99.90
3154;DHT22;1587;48.630;9.046;2022-08-30T05:08:48;12.20;99.90
3154;DHT22;1587;48.630;9.046;2022-08-30T05:11:14;12.20;99.90
3154;DHT22;1587;48.630;9.046;2022-08-30T05:13:40;12.10;99.90
3154;DHT22;1587;48.630;9.046;2022-08-30T05:16:06;12.20;99.90
3154;DHT22;1587;48.630;9.046;2022-08-30T05:18:32;12.40;99.90
3154;DHT22;1587;48.630;9.046;2022-08-30T05:21:04;12.40;99.90
3154;DHT22;1587;48.630;9.046;2022-08-30T05:23:30;12.40;99.90
3154;DHT22;1587;48.630;9.046;2022-08-30T05:25:55;12.50;99.90
3154;DHT22;1587;48.630;9.046;2022-08-30T05:28:21;12.70;99.90
3154;DHT22;1587;48.630;9.046;2022-08-30T05:30:47;12.80;99.90
3154;DHT22;1587;48.630;9.046;2022-08-30T05:33:12;12.80;99.90
3154;DHT22;1587;48.630;9.046;2022-08-30T05:35:38;12.90;99.90
3154;DHT22;1587;48.630;9.046;2022-08-30T05:38:04;13.00;99.90
3154;DHT22;1587;48.630;9.046;2022-08-30T05:40:30;13.10;99.90
3154;DHT22;1587;48.630;9.046;2022-08-30T05:42:55;13.30;99.90
3154;DHT22;1587;48.630;9.046;2022-08-30T05:45:21;13.50;99.90
3154;DHT22;1587;48.630;9.046;2022-08-30T05:47:46;13.60;99.90
3154;DHT22;1587;48.630;9.046;2022-08-30T05:50:12;13.70;99.90
3154;DHT22;1587;48.630;9.046;2022-08-30T05:52:38;13.80;99.90
3154;DHT22;1587;48.630;9.046;2022-08-30T05:55:05;14.00;99.90
3154;DHT22;1587;48.630;9.046;2022-08-30T05:57:32;14.00;99.90
3154;DHT22;1587;48.630;9.046;2022-08-30T05:59:59;14.10;99.90
3154;DHT22;1587;48.630;9.046;2022-08-30T06:02:24;14.10;99.90
3154;DHT22;1587;48.630;9.046;2022-08-30T06:04:50;14.20;99.90
3154;DHT22;1587;48.630;9.046;2022-08-30T06:07:15;14.20;99.90
3154;DHT22;1587;48.630;9.046;2022-08-30T06:09:40;14.30;99.90
3154;DHT22;1587;48.630;9.046;2022-08-30T06:12:06;14.40;99.90
3154;DHT22;1587;48.630;9.046;2022-08-30T06:14:32;14.40;99.90
3154;DHT22;1587;48.630;9.046;2022-08-30T06:16:57;14.50;99.90
3154;DHT22;1587;48.630;9.046;2022-08-30T06:19:23;14.60;99.90
3154;DHT22;1587;48.630;9.046;2022-08-30T06:21:48;14.60;99.90
3154;DHT22;1587;48.630;9.046;2022-08-30T06:24:14;14.70;99.90
3154;DHT22;1587;48.630;9.046;2022-08-30T06:26:41;14.80;99.90
3154;DHT22;1587;48.630;9.046;2022-08-30T06:29:07;14.80;99.90
3154;DHT22;1587;48.630;9.046;2022-08-30T06:31:33;14.90;99.90
3154;DHT22;1587;48.630;9.046;2022-08-30T06:33:59;15.00;99.90
3154;DHT22;1587;48.630;9.046;2022-08-30T06:36:24;15.10;99.90
3154;DHT22;1587;48.630;9.046;2022-08-30T06:38:51;15.20;99.90
3154;DHT22;1587;48.630;9.046;2022-08-30T06:41:18;15.30;99.90
3154;DHT22;1587;48.630;9.046;2022-08-30T06:43:44;15.40;99.90
3154;DHT22;1587;48.630;9.046;2022-08-30T06:46:11;15.60;99.90
3154;DHT22;1587;48.630;9.046;2022-08-30T06:48:37;15.80;99.90
3154;DHT22;1587;48.630;9.046;2022-08-30T06:51:03;16.00;99.90
3154;DHT22;1587;48.630;9.046;2022-08-30T06:53:28;16.10;99.90
3154;DHT22;1587;48.630;9.046;2022-08-30T06:56:05;16.20;99.90
3154;DHT22;1587;48.630;9.046;2022-08-30T06:58:31;16.40;99.90
3154;DHT22;1587;48.630;9.046;2022-08-30T07:00:57;16.60;99.90
3154;DHT22;1587;48.630;9.046;2022-08-30T07:03:23;16.80;99.90
3154;DHT22;1587;48.630;9.046;2022-08-30T07:05:52;17.00;99.90
3154;DHT22;1587;48.630;9.046;2022-08-30T07:08:17;17.20;99.90
3154;DHT22;1587;48.630;9.046;2022-08-30T07:10:43;17.40;99.90
3154;DHT22;1587;48.630;9.046;2022-08-30T07:13:08;17.60;99.90
3154;DHT22;1587;48.630;9.046;2022-08-30T07:15:34;17.80;99.90
3154;DHT22;1587;48.630;9.046;2022-08-30T07:18:00;17.90;99.90
3154;DHT22;1587;48.630;9.046;2022-08-30T07:20:44;18.30;99.90
3154;DHT22;1587;48.630;9.046;2022-08-30T07:23:09;18.60;99.90
3154;DHT22;1587;48.630;9.046;2022-08-30T07:25:35;19.10;99.90
3154;DHT22;1587;48.630;9.046;2022-08-30T07:28:01;19.90;99.90
3154;DHT22;1587;48.630;9.046;2022-08-30T07:30:27;20.70;99.90
3154;DHT22;1587;48.630;9.046;2022-08-30T07:32:52;21.30;99.90
3154;DHT22;1587;48.630;9.046;2022-08-30T07:35:18;21.70;99.90
3154;DHT22;1587;48.630;9.046;2022-08-30T07:37:43;22.30;99.90
3154;DHT22;1587;48.630;9.046;2022-08-30T07:40:09;22.40;99.90
3154;DHT22;1587;48.630;9.046;2022-08-30T07:42:35;23.10;99.90
3154;DHT22;1587;48.630;9.046;2022-08-30T07:45:00;23.80;99.90
3154;DHT22;1587;48.630;9.046;2022-08-30T07:47:27;24.20;99.90
3154;DHT22;1587;48.630;9.046;2022-08-30T07:49:52;24.20;99.90
3154;DHT22;1587;48.630;9.046;2022-08-30T07:52:18;24.20;99.90
3154;DHT22;1587;48.630;9.046;2022-08-30T07:54:43;24.50;99.90
3154;DHT22;1587;48.630;9.046;2022-08-30T07:57:09;23.90;99.90
3154;DHT22;1587;48.630;9.046;2022-08-30T07:59:34;24.20;99.80
3154;DHT22;1587;48.630;9.046;2022-08-30T08:02:00;23.70;99.90
3154;DHT22;1587;48.630;9.046;2022-08-30T08:04:25;23.40;99.90
3154;DHT22;1587;48.630;9.046;2022-08-30T08:06:51;23.30;99.90
3154;DHT22;1587;48.630;9.046;2022-08-30T08:09:16;23.20;99.90
3154;DHT22;1587;48.630;9.046;2022-08-30T08:11:42;23.20;99.90
3154;DHT22;1587;48.630;9.046;2022-08-30T08:14:07;22.60;99.90
3154;DHT22;1587;48.630;9.046;2022-08-30T08:16:34;22.60;99.90
3154;DHT22;1587;48.630;9.046;2022-08-30T08:19:02;24.20;99.90
3154;DHT22;1587;48.630;9.046;2022-08-30T08:21:28;26.00;97.50
3154;DHT22;1587;48.630;9.046;2022-08-30T08:23:54;27.20;92.80
3154;DHT22;1587;48.630;9.046;2022-08-30T08:26:20;26.60;92.50
3154;DHT22;1587;48.630;9.046;2022-08-30T08:28:45;26.10;92.70
3154;DHT22;1587;48.630;9.046;2022-08-30T08:33:39;27.10;93.00
3154;DHT22;1587;48.630;9.046;2022-08-30T08:36:05;27.70;87.10
3154;DHT22;1587;48.630;9.046;2022-08-30T08:38:30;28.20;86.60
3154;DHT22;1587;48.630;9.046;2022-08-30T08:43:40;28.20;87.60
3154;DHT22;1587;48.630;9.046;2022-08-30T08:46:11;29.00;83.20
3154;DHT22;1587;48.630;9.046;2022-08-30T08:51:03;28.20;84.30
3154;DHT22;1587;48.630;9.046;2022-08-30T08:53:52;29.50;83.00
3154;DHT22;1587;48.630;9.046;2022-08-30T08:56:19;30.90;76.80
3154;DHT22;1587;48.630;9.046;2022-08-30T08:58:48;31.70;72.70
3154;DHT22;1587;48.630;9.046;2022-08-30T09:01:15;30.00;72.50
3154;DHT22;1587;48.630;9.046;2022-08-30T09:03:42;30.70;73.00
3154;DHT22;1587;48.630;9.046;2022-08-30T09:08:53;31.70;70.30
3154;DHT22;1587;48.630;9.046;2022-08-30T09:11:23;31.50;68.70
3154;DHT22;1587;48.630;9.046;2022-08-30T09:13:49;31.10;69.10
3154;DHT22;1587;48.630;9.046;2022-08-30T09:18:59;32.30;66.10
3154;DHT22;1587;48.630;9.046;2022-08-30T09:21:25;31.10;65.40
3154;DHT22;1587;48.630;9.046;2022-08-30T09:23:55;31.30;69.90
3154;DHT22;1587;48.630;9.046;2022-08-30T09:26:27;32.40;64.30
3154;DHT22;1587;48.630;9.046;2022-08-30T09:28:53;32.10;61.50
3154;DHT22;1587;48.630;9.046;2022-08-30T09:33:54;32.70;61.00
3154;DHT22;1587;48.630;9.046;2022-08-30T09:36:31;32.60;60.10
3154;DHT22;1587;48.630;9.046;2022-08-30T09:39:04;33.20;59.90
3154;DHT22;1587;48.630;9.046;2022-08-30T09:41:35;33.40;58.90
3154;DHT22;1587;48.630;9.046;2022-08-30T09:44:03;33.50;58.60
3154;DHT22;1587;48.630;9.046;2022-08-30T09:46:29;33.70;57.80
3154;DHT22;1587;48.630;9.046;2022-08-30T09:48:54;33.50;56.90
3154;DHT22;1587;48.630;9.046;2022-08-30T09:51:40;34.20;57.40
3154;DHT22;1587;48.630;9.046;2022-08-30T09:54:25;33.70;54.70
3154;DHT22;1587;48.630;9.046;2022-08-30T09:59:36;33.40;57.30
3154;DHT22;1587;48.630;9.046;2022-08-30T10:04:39;34.10;57.50
3154;DHT22;1587;48.630;9.046;2022-08-30T10:14:42;34.00;53.90
3154;DHT22;1587;48.630;9.046;2022-08-30T10:17:18;34.80;54.50
3154;DHT22;1587;48.630;9.046;2022-08-30T10:19:49;34.30;55.50
3154;DHT22;1587;48.630;9.046;2022-08-30T10:22:23;34.60;55.10
3154;DHT22;1587;48.630;9.046;2022-08-30T10:24:55;35.40;52.20
3154;DHT22;1587;48.630;9.046;2022-08-30T10:27:27;36.00;51.20
3154;DHT22;1587;48.630;9.046;2022-08-30T10:30:02;34.90;52.70
3154;DHT22;1587;48.630;9.046;2022-08-30T10:32:38;35.80;51.40
3154;DHT22;1587;48.630;9.046;2022-08-30T10:37:41;34.30;50.20
3154;DHT22;1587;48.630;9.046;2022-08-30T10:40:14;35.60;49.60
3154;DHT22;1587;48.630;9.046;2022-08-30T10:43:00;36.10;48.80
3154;DHT22;1587;48.630;9.046;2022-08-30T10:45:27;36.10;50.10
3154;DHT22;1587;48.630;9.046;2022-08-30T10:48:10;36.20;47.70
3154;DHT22;1587;48.630;9.046;2022-08-30T10:50:40;35.80;47.90
3154;DHT22;1587;48.630;9.046;2022-08-30T10:53:15;35.80;48.50
3154;DHT22;1587;48.630;9.046;2022-08-30T10:55:52;35.60;48.20
3154;DHT22;1587;48.630;9.046;2022-08-30T10:58:20;35.40;47.10
3154;DHT22;1587;48.630;9.046;2022-08-30T11:00:53;36.30;48.20
3154;DHT22;1587;48.630;9.046;2022-08-30T11:13:38;34.50;46.70
3154;DHT22;1587;48.630;9.046;2022-08-30T11:16:10;35.60;46.80
3154;DHT22;1587;48.630;9.046;2022-08-30T11:21:50;34.50;47.90
3154;DHT22;1587;48.630;9.046;2022-08-30T11:23:58;35.50;46.60
3154;DHT22;1587;48.630;9.046;2022-08-30T11:29:14;34.90;47.60
3154;DHT22;1587;48.630;9.046;2022-08-30T11:31:55;34.70;50.00
3154;DHT22;1587;48.630;9.046;2022-08-30T11:37:06;32.80;50.10
3154;DHT22;1587;48.630;9.046;2022-08-30T11:44:36;32.10;52.50
3154;DHT22;1587;48.630;9.046;2022-08-30T11:47:10;30.80;52.80
3154;DHT22;1587;48.630;9.046;2022-08-30T11:52:33;32.60;51.90
3154;DHT22;1587;48.630;9.046;2022-08-30T11:55:17;32.50;53.20
3154;DHT22;1587;48.630;9.046;2022-08-30T12:05:55;30.60;52.90
3154;DHT22;1587;48.630;9.046;2022-08-30T12:28:49;28.50;62.80
3154;DHT22;1587;48.630;9.046;2022-08-30T12:31:17;28.80;63.60
3154;DHT22;1587;48.630;9.046;2022-08-30T12:33:44;28.00;61.50
3154;DHT22;1587;48.630;9.046;2022-08-30T12:36:11;28.00;63.60
3154;DHT22;1587;48.630;9.046;2022-08-30T12:38:37;27.40;63.50
3154;DHT22;1587;48.630;9.046;2022-08-30T12:41:02;27.40;64.10
3154;DHT22;1587;48.630;9.046;2022-08-30T12:45:55;27.30;66.80
3154;DHT22;1587;48.630;9.046;2022-08-30T12:48:21;27.40;65.60
3154;DHT22;1587;48.630;9.046;2022-08-30T12:50:54;27.50;67.40
3154;DHT22;1587;48.630;9.046;2022-08-30T12:53:30;27.70;66.70
3154;DHT22;1587;48.630;9.046;2022-08-30T13:03:39;27.70;65.00
3154;DHT22;1587;48.630;9.046;2022-08-30T13:06:06;27.80;65.60
3154;DHT22;1587;48.630;9.046;2022-08-30T13:11:24;27.80;66.40
3154;DHT22;1587;48.630;9.046;2022-08-30T13:13:52;28.00;62.80
3154;DHT22;1587;48.630;9.046;2022-08-30T13:18:45;28.20;63.20
3154;DHT22;1587;48.630;9.046;2022-08-30T13:23:46;27.90;63.60
3154;DHT22;1587;48.630;9.046;2022-08-30T13:26:11;28.10;62.50
3154;DHT22;1587;48.630;9.046;2022-08-30T13:28:44;27.80;65.60
3154;DHT22;1587;48.630;9.046;2022-08-30T13:31:10;27.70;60.50
3154;DHT22;1587;48.630;9.046;2022-08-30T13:33:35;27.70;61.60
3154;DHT22;1587;48.630;9.046;2022-08-30T13:36:01;27.60;65.30
3154;DHT22;1587;48.630;9.046;2022-08-30T13:38:27;27.90;65.10
3154;DHT22;1587;48.630;9.046;2022-08-30T13:40:52;27.90;63.50
3154;DHT22;1587;48.630;9.046;2022-08-30T13:43:18;28.00;64.10
3154;DHT22;1587;48.630;9.046;2022-08-30T13:45:43;28.00;63.80
3154;DHT22;1587;48.630;9.046;2022-08-30T13:48:09;27.90;64.50
3154;DHT22;1587;48.630;9.046;2022-08-30T13:50:35;27.90;63.60
3154;DHT22;1587;48.630;9.046;2022-08-30T13:53:01;28.00;64.40
3154;DHT22;1587;48.630;9.046;2022-08-30T13:55:26;27.80;62.20
3154;DHT22;1587;48.630;9.046;2022-08-30T13:57:52;28.00;64.50
3154;DHT22;1587;48.630;9.046;2022-08-30T14:00:18;28.10;66.20
3154;DHT22;1587;48.630;9.046;2022-08-30T14:02:44;27.60;62.70
3154;DHT22;1587;48.630;9.046;2022-08-30T14:05:10;27.60;66.30
3154;DHT22;1587;48.630;9.046;2022-08-30T14:07:35;27.90;64.20
3154;DHT22;1587;48.630;9.046;2022-08-30T14:10:01;27.90;63.60
3154;DHT22;1587;48.630;9.046;2022-08-30T14:12:26;27.70;63.00
3154;DHT22;1587;48.630;9.046;2022-08-30T14:14:52;28.00;64.30
3154;DHT22;1587;48.630;9.046;2022-08-30T14:17:17;28.10;62.90
3154;DHT22;1587;48.630;9.046;2022-08-30T14:19:43;28.10;63.80
3154;DHT22;1587;48.630;9.046;2022-08-30T14:22:08;28.30;62.00
3154;DHT22;1587;48.630;9.046;2022-08-30T14:24:34;29.30;62.10
3154;DHT22;1587;48.630;9.046;2022-08-30T14:26:59;32.20;55.50
3154;DHT22;1587;48.630;9.046;2022-08-30T14:29:25;33.40;51.80
3154;DHT22;1587;48.630;9.046;2022-08-30T14:31:54;33.80;49.60
3154;DHT22;1587;48.630;9.046;2022-08-30T14:34:19;33.50;49.60
3154;DHT22;1587;48.630;9.046;2022-08-30T14:36:47;32.90;49.70
3154;DHT22;1587;48.630;9.046;2022-08-30T14:39:14;33.90;48.60
3154;DHT22;1587;48.630;9.046;2022-08-30T14:41:41;33.50;47.90
3154;DHT22;1587;48.630;9.046;2022-08-30T14:44:07;32.50;49.20
3154;DHT22;1587;48.630;9.046;2022-08-30T14:46:32;34.00;48.40
3154;DHT22;1587;48.630;9.046;2022-08-30T14:48:58;33.00;48.90
3154;DHT22;1587;48.630;9.046;2022-08-30T14:51:23;33.20;48.80
3154;DHT22;1587;48.630;9.046;2022-08-30T14:53:50;33.50;47.10
3154;DHT22;1587;48.630;9.046;2022-08-30T14:56:16;34.50;47.50
3154;DHT22;1587;48.630;9.046;2022-08-30T14:58:42;34.30;46.40
3154;DHT22;1587;48.630;9.046;2022-08-30T15:01:08;33.20;47.80
3154;DHT22;1587;48.630;9.046;2022-08-30T15:03:35;32.30;49.20
3154;DHT22;1587;48.630;9.046;2022-08-30T15:06:01;33.10;49.90
3154;DHT22;1587;48.630;9.046;2022-08-30T15:08:26;32.60;49.50
3154;DHT22;1587;48.630;9.046;2022-08-30T15:10:52;32.00;51.40
3154;DHT22;1587;48.630;9.046;2022-08-30T15:13:18;31.50;50.90
3154;DHT22;1587;48.630;9.046;2022-08-30T15:15:43;30.20;54.50
3154;DHT22;1587;48.630;9.046;2022-08-30T15:18:09;30.70;54.20
3154;DHT22;1587;48.630;9.046;2022-08-30T15:20:34;31.20;53.00
3154;DHT22;1587;48.630;9.046;2022-08-30T15:23:00;31.30;51.90
3154;DHT22;1587;48.630;9.046;2022-08-30T15:25:25;31.40;53.30
3154;DHT22;1587;48.630;9.046;2022-08-30T15:27:51;31.80;52.50
3154;DHT22;1587;48.630;9.046;2022-08-30T15:30:16;32.00;54.30
3154;DHT22;1587;48.630;9.046;2022-08-30T15:32:42;32.10;53.00
3154;DHT22;1587;48.630;9.046;2022-08-30T15:35:08;31.60;50.40
3154;DHT22;1587;48.630;9.046;2022-08-30T15:37:33;31.90;50.30
3154;DHT22;1587;48.630;9.046;2022-08-30T15:39:59;32.50;50.00
3154;DHT22;1587;48.630;9.046;2022-08-30T15:42:25;31.40;51.50
3154;DHT22;1587;48.630;9.046;2022-08-30T15:44:51;29.90;53.80
3154;DHT22;1587;48.630;9.046;2022-08-30T15:47:18;29.00;56.70
3154;DHT22;1587;48.630;9.046;2022-08-30T15:49:43;28.50;58.80
3154;DHT22;1587;48.630;9.046;2022-08-30T15:52:09;27.80;59.20
3154;DHT22;1587;48.630;9.046;2022-08-30T15:54:34;27.50;61.20
3154;DHT22;1587;48.630;9.046;2022-08-30T15:57:00;27.10;62.60
3154;DHT22;1587;48.630;9.046;2022-08-30T15:59:26;27.00;62.90
3154;DHT22;1587;48.630;9.046;2022-08-30T16:01:52;26.80;64.20
3154;DHT22;1587;48.630;9.046;2022-08-30T16:04:17;26.60;64.80
3154;DHT22;1587;48.630;9.046;2022-08-30T16:06:43;26.40;64.70
3154;DHT22;1587;48.630;9.046;2022-08-30T16:09:09;26.10;63.00
3154;DHT22;1587;48.630;9.046;2022-08-30T16:11:35;25.90;64.80
3154;DHT22;1587;48.630;9.046;2022-08-30T16:14:01;25.90;66.00
3154;DHT22;1587;48.630;9.046;2022-08-30T16:16:27;25.70;67.40
3154;DHT22;1587;48.630;9.046;2022-08-30T16:18:52;25.60;65.60
3154;DHT22;1587;48.630;9.046;2022-08-30T16:21:19;25.60;66.00
3154;DHT22;1587;48.630;9.046;2022-08-30T16:23:45;25.50;67.40
3154;DHT22;1587;48.630;9.046;2022-08-30T16:26:11;25.50;68.90
3154;DHT22;1587;48.630;9.046;2022-08-30T16:28:37;25.50;70.90
3154;DHT22;1587;48.630;9.046;2022-08-30T16:31:03;25.30;73.10
3154;DHT22;1587;48.630;9.046;2022-08-30T16:33:29;25.30;69.00
3154;DHT22;1587;48.630;9.046;2022-08-30T16:35:55;25.30;70.20
3154;DHT22;1587;48.630;9.046;2022-08-30T16:38:22;25.30;69.10
3154;DHT22;1587;48.630;9.046;2022-08-30T16:40:47;25.20;68.60
3154;DHT22;1587;48.630;9.046;2022-08-30T16:43:13;25.20;68.20
3154;DHT22;1587;48.630;9.046;2022-08-30T16:45:40;25.20;68.30
3154;DHT22;1587;48.630;9.046;2022-08-30T16:48:06;25.20;68.30
3154;DHT22;1587;48.630;9.046;2022-08-30T16:50:35;25.10;69.40
3154;DHT22;1587;48.630;9.046;2022-08-30T16:53:01;25.10;69.40
3154;DHT22;1587;48.630;9.046;2022-08-30T16:55:26;25.00;70.10
3154;DHT22;1587;48.630;9.046;2022-08-30T16:57:52;24.90;72.30
3154;DHT22;1587;48.630;9.046;2022-08-30T17:00:17;24.80;70.50
3154;DHT22;1587;48.630;9.046;2022-08-30T17:02:43;24.80;70.40
3154;DHT22;1587;48.630;9.046;2022-08-30T17:05:09;24.70;72.10
3154;DHT22;1587;48.630;9.046;2022-08-30T17:07:34;24.50;72.40
3154;DHT22;1587;48.630;9.046;2022-08-30T17:10:00;24.50;71.20
3154;DHT22;1587;48.630;9.046;2022-08-30T17:12:27;24.40;72.40
3154;DHT22;1587;48.630;9.046;2022-08-30T17:14:53;24.20;73.70
3154;DHT22;1587;48.630;9.046;2022-08-30T17:17:18;24.10;74.40
3154;DHT22;1587;48.630;9.046;2022-08-30T17:19:44;24.10;73.70
3154;DHT22;1587;48.630;9.046;2022-08-30T17:22:10;24.00;74.00
3154;DHT22;1587;48.630;9.046;2022-08-30T17:24:36;24.10;73.80
3154;DHT22;1587;48.630;9.046;2022-08-30T17:27:02;24.00;75.30
3154;DHT22;1587;48.630;9.046;2022-08-30T17:29:27;23.90;75.10
3154;DHT22;1587;48.630;9.046;2022-08-30T17:31:53;23.80;76.60
3154;DHT22;1587;48.630;9.046;2022-08-30T17:34:19;23.80;75.90
3154;DHT22;1587;48.630;9.046;2022-08-30T17:36:47;23.60;77.60
3154;DHT22;1587;48.630;9.046;2022-08-30T17:39:13;23.50;77.60
3154;DHT22;1587;48.630;9.046;2022-08-30T17:41:39;23.40;78.80
3154;DHT22;1587;48.630;9.046;2022-08-30T17:44:05;23.30;79.20
3154;DHT22;1587;48.630;9.046;2022-08-30T17:46:30;23.30;79.60